Time;durP1;ratioP1;P1;durP2;ratioP2;P2;SDS_P1;SDS_P2;PMS_P1;PMS_P2;Temp;Humidity;BMP_temperature;BMP_pressure;BME280_temperature;BME280_humidity;BME280_pressure;Samples;Min_cycle;Max_cycle;Signal;HPM_P1;HPM_P2
2021/04/18 00:01:49;;;;;;;10.80;4.13;;;17.10;99.90;;;;;;5053309;28;20285;-78
2021/04/18 00:04:16;;;;;;;13.40;4.53;;;17.40;99.90;;;;;;5049210;28;20187;-72
2021/04/18 00:06:44;;;;;;;11.77;5.73;;;17.70;99.90;;;;;;5052358;28;20229;-78
2021/04/18 00:09:12;;;;;;;12.07;5.27;;;17.80;99.90;;;;;;5053171;28;20176;-79
2021/04/18 00:11:40;;;;;;;7.77;4.43;;;17.90;99.90;;;;;;5053012;28;20250;-73
2021/04/18 00:14:09;;;;;;;10.17;4.23;;;17.90;99.90;;;;;;5034415;28;20214;-72
2021/04/18 00:16:37;;;;;;;13.47;4.37;;;17.90;99.90;;;;;;5052342;28;20212;-76
2021/04/18 00:19:06;;;;;;;12.70;4.60;;;18.00;99.90;;;;;;5055933;28;20535;-74
2021/04/18 00:21:34;;;;;;;16.83;4.50;;;18.10;99.90;;;;;;5052101;28;20207;-80
2021/04/18 00:24:02;;;;;;;12.37;4.43;;;18.20;99.90;;;;;;5053282;28;20583;-78
2021/04/18 00:26:30;;;;;;;17.33;5.20;;;18.30;99.90;;;;;;5053267;28;20174;-75
2021/04/18 00:28:57;;;;;;;14.13;3.93;;;18.30;99.90;;;;;;5053307;28;20190;-77
2021/04/18 00:31:25;;;;;;;12.87;4.13;;;18.50;99.90;;;;;;5052812;28;20219;-72
2021/04/18 00:33:52;;;;;;;9.73;4.10;;;18.80;99.90;;;;;;5053272;28;20176;-82
2021/04/18 00:36:19;;;;;;;12.40;4.50;;;19.10;99.90;;;;;;5052808;28;20262;-78
2021/04/18 00:38:47;;;;;;;12.50;4.73;;;19.30;99.90;;;;;;5050518;28;20176;-72
2021/04/18 00:41:14;;;;;;;13.57;4.90;;;19.40;99.90;;;;;;5053073;28;20578;-72
2021/04/18 00:43:45;;;;;;;11.73;4.20;;;19.50;99.90;;;;;;5050521;28;20184;-73
2021/04/18 00:46:14;;;;;;;8.90;4.10;;;19.60;99.90;;;;;;5052936;28;20184;-77
2021/04/18 00:48:45;;;;;;;14.67;4.07;;;19.70;99.90;;;;;;5051730;28;20184;-72
2021/04/18 00:51:14;;;;;;;9.10;3.57;;;19.80;99.90;;;;;;5052377;28;20184;-72
2021/04/18 00:53:42;;;;;;;7.93;3.50;;;20.00;99.90;;;;;;5052691;28;20256;-73
2021/04/18 00:56:11;;;;;;;11.13;3.00;;;19.90;99.90;;;;;;5039306;28;20216;-80
2021/04/18 00:58:39;;;;;;;10.10;3.60;;;20.10;99.90;;;;;;5037376;28;20302;-72
2021/04/18 01:01:08;;;;;;;7.37;3.23;;;20.30;99.70;;;;;;5048721;28;20183;-77
2021/04/18 01:03:36;;;;;;;9.23;3.20;;;20.40;99.80;;;;;;5051309;28;20409;-74
2021/04/18 01:06:04;;;;;;;10.13;3.17;;;20.60;99.10;;;;;;5065978;28;20187;-75
2021/04/18 01:08:32;;;;;;;7.57;3.30;;;20.20;99.40;;;;;;5049814;28;20180;-72
2021/04/18 01:10:59;;;;;;;12.37;3.37;;;20.20;99.10;;;;;;5052540;28;20190;-80
2021/04/18 01:13:27;;;;;;;6.43;2.90;;;20.10;98.60;;;;;;5049744;28;20172;-70
2021/04/18 01:15:54;;;;;;;7.37;2.77;;;20.00;99.10;;;;;;5043595;28;20219;-70
2021/04/18 01:18:22;;;;;;;13.80;3.13;;;20.30;99.20;;;;;;5051436;28;20179;-69
2021/04/18 01:21:01;;;;;;;15.87;3.60;;;20.90;98.60;;;;;;5047718;28;20186;-73
2021/04/18 01:23:29;;;;;;;8.07;2.83;;;21.10;97.90;;;;;;5050271;28;20527;-68
2021/04/18 01:25:56;;;;;;;8.00;2.93;;;21.20;96.90;;;;;;5051047;28;20176;-69
2021/04/18 01:28:23;;;;;;;7.30;2.40;;;21.10;96.50;;;;;;5049163;28;20528;-78
2021/04/18 01:30:51;;;;;;;11.23;2.87;;;21.00;96.10;;;;;;5052218;28;20281;-72
2021/04/18 01:33:20;;;;;;;9.27;3.70;;;21.10;96.20;;;;;;5052337;28;20187;-70
2021/04/18 01:35:48;;;;;;;7.57;2.47;;;21.00;96.30;;;;;;5047679;28;20211;-71
2021/04/18 01:38:17;;;;;;;8.50;3.03;;;21.20;96.10;;;;;;5052179;28;20184;-70
2021/04/18 01:40:45;;;;;;;7.67;2.63;;;21.20;95.60;;;;;;5051550;28;20241;-70
2021/04/18 01:43:14;;;;;;;9.70;2.77;;;20.90;95.70;;;;;;5051986;28;20270;-73
2021/04/18 01:45:42;;;;;;;12.03;5.13;;;20.90;95.70;;;;;;5046240;28;20279;-71
2021/04/18 01:48:11;;;;;;;8.60;3.03;;;21.10;95.70;;;;;;5051544;28;20585;-74
2021/04/18 01:50:49;;;;;;;9.77;3.13;;;21.40;95.40;;;;;;5052759;28;20183;-71
2021/04/18 01:53:17;;;;;;;6.03;2.87;;;21.80;95.60;;;;;;5051337;28;20270;-71
2021/04/18 01:55:45;;;;;;;8.87;2.80;;;22.30;94.40;;;;;;5048133;28;20280;-74
2021/04/18 01:58:12;;;;;;;9.60;2.93;;;22.00;94.20;;;;;;5052253;28;20188;-73
2021/04/18 02:00:40;;;;;;;8.17;3.47;;;22.40;93.40;;;;;;5051549;28;20203;-72
2021/04/18 02:03:08;;;;;;;8.03;2.93;;;22.60;93.40;;;;;;5050886;28;20247;-72
2021/04/18 02:05:36;;;;;;;13.50;3.37;;;22.50;93.30;;;;;;5051708;28;20188;-71
2021/04/18 02:08:03;;;;;;;8.47;3.20;;;22.80;92.90;;;;;;5042683;28;20184;-71
2021/04/18 02:10:31;;;;;;;7.67;2.87;;;22.40;93.00;;;;;;5048864;28;20232;-76
2021/04/18 02:12:58;;;;;;;11.20;3.00;;;22.30;93.40;;;;;;5046899;28;20275;-71
2021/04/18 02:15:26;;;;;;;9.97;2.90;;;22.20;93.50;;;;;;5050243;28;20561;-69
2021/04/18 02:17:53;;;;;;;10.70;3.73;;;21.90;94.30;;;;;;5048765;28;20187;-75
2021/04/18 02:20:20;;;;;;;7.87;3.17;;;21.70;95.20;;;;;;5048347;28;20196;-73
2021/04/18 02:22:48;;;;;;;15.53;7.30;;;21.40;95.70;;;;;;5047503;28;20185;-71
2021/04/18 02:25:15;;;;;;;10.73;3.63;;;21.20;96.20;;;;;;5049713;28;20188;-72
2021/04/18 02:27:43;;;;;;;16.37;7.57;;;21.10;96.40;;;;;;5051267;28;20697;-70
2021/04/18 02:30:11;;;;;;;9.87;4.00;;;21.00;96.80;;;;;;5049813;28;20230;-74
2021/04/18 02:32:39;;;;;;;11.17;3.50;;;21.00;96.60;;;;;;5050622;28;20247;-72
2021/04/18 02:35:07;;;;;;;13.03;3.67;;;20.80;96.50;;;;;;5046380;28;20266;-73
2021/04/18 02:37:34;;;;;;;11.30;3.63;;;20.70;96.60;;;;;;5051025;28;20588;-71
2021/04/18 02:40:02;;;;;;;8.63;3.60;;;20.60;96.90;;;;;;5050780;28;20183;-72
2021/04/18 02:42:29;;;;;;;12.97;3.50;;;20.60;97.10;;;;;;5049115;28;20238;-75
2021/04/18 02:44:57;;;;;;;9.60;3.07;;;20.90;96.90;;;;;;5051566;28;20187;-73
2021/04/18 02:47:24;;;;;;;9.67;3.30;;;21.20;96.40;;;;;;5053793;28;20579;-71
2021/04/18 02:49:52;;;;;;;9.73;3.30;;;21.20;95.80;;;;;;5054598;28;20172;-73
2021/04/18 02:52:19;;;;;;;7.03;3.03;;;21.20;95.90;;;;;;5053451;28;20591;-74
2021/04/18 02:54:46;;;;;;;7.03;3.23;;;21.00;95.80;;;;;;5055132;28;20176;-75
2021/04/18 02:57:14;;;;;;;7.40;3.07;;;21.00;96.30;;;;;;5054578;28;20233;-75
2021/04/18 02:59:41;;;;;;;10.13;3.30;;;21.20;96.20;;;;;;5053444;28;20259;-73
2021/04/18 03:02:08;;;;;;;11.33;3.87;;;21.20;96.20;;;;;;5069147;28;20176;-73
2021/04/18 03:04:36;;;;;;;9.37;3.23;;;21.40;95.70;;;;;;5054385;28;20207;-72
2021/04/18 03:07:03;;;;;;;8.43;2.83;;;21.70;95.40;;;;;;5043791;28;20184;-72
2021/04/18 03:09:30;;;;;;;6.67;2.73;;;22.50;94.50;;;;;;5049862;28;20261;-72
2021/04/18 03:11:58;;;;;;;12.60;3.30;;;23.10;93.40;;;;;;5054550;28;20179;-72
2021/04/18 03:14:25;;;;;;;10.17;3.10;;;23.20;93.40;;;;;;5047580;28;20192;-73
2021/04/18 03:16:52;;;;;;;9.60;3.30;;;23.20;92.90;;;;;;5042643;28;20218;-72
2021/04/18 03:19:20;;;;;;;10.60;3.73;;;23.60;92.90;;;;;;5051090;28;20643;-75
2021/04/18 03:21:47;;;;;;;8.67;3.83;;;24.00;91.50;;;;;;5061901;28;20184;-71
2021/04/18 03:24:15;;;;;;;12.43;3.37;;;23.70;91.90;;;;;;5054806;28;20180;-75
2021/04/18 03:26:42;;;;;;;11.67;3.53;;;23.90;91.40;;;;;;5049063;28;20465;-74
2021/04/18 03:29:09;;;;;;;10.73;3.57;;;23.80;91.30;;;;;;5054534;28;20184;-72
2021/04/18 03:31:37;;;;;;;9.50;3.57;;;24.20;91.40;;;;;;5054587;28;20230;-73
2021/04/18 03:34:04;;;;;;;13.10;3.80;;;24.60;90.60;;;;;;5054221;28;20215;-71
2021/04/18 03:36:31;;;;;;;9.43;3.27;;;24.50;91.40;;;;;;5053710;28;20239;-70
2021/04/18 03:38:59;;;;;;;14.20;4.10;;;25.40;90.00;;;;;;5054436;28;20172;-73
2021/04/18 03:41:26;;;;;;;7.97;3.40;;;25.70;88.00;;;;;;5053948;28;20329;-75
2021/04/18 03:43:53;;;;;;;8.43;3.07;;;25.10;89.70;;;;;;5053829;28;20183;-75
2021/04/18 03:46:21;;;;;;;8.47;3.10;;;25.40;88.00;;;;;;5053512;28;20188;-70
2021/04/18 03:48:48;;;;;;;7.03;2.97;;;25.60;89.60;;;;;;5053891;28;20270;-74
2021/04/18 03:51:15;;;;;;;8.93;3.37;;;25.60;89.40;;;;;;5038753;28;20179;-75
2021/04/18 03:53:43;;;;;;;7.73;2.70;;;25.90;89.20;;;;;;5052342;28;20186;-76
2021/04/18 03:56:10;;;;;;;6.73;2.60;;;24.90;90.70;;;;;;5053243;28;20211;-74
2021/04/18 03:58:38;;;;;;;12.47;2.57;;;24.30;92.10;;;;;;5053708;28;20649;-73
2021/04/18 04:01:05;;;;;;;14.87;3.07;;;23.70;92.50;;;;;;5053775;28;20646;-76
2021/04/18 04:03:32;;;;;;;7.23;2.57;;;23.30;93.50;;;;;;5052810;28;20176;-74
2021/04/18 04:06:00;;;;;;;7.23;3.03;;;23.60;93.60;;;;;;5052883;28;20176;-73
2021/04/18 04:08:27;;;;;;;6.40;3.00;;;23.40;93.80;;;;;;5053863;28;20176;-72
2021/04/18 04:10:54;;;;;;;7.07;3.00;;;23.50;93.50;;;;;;5054004;28;20172;-73
2021/04/18 04:13:22;;;;;;;8.70;3.03;;;23.10;94.10;;;;;;5053591;28;20630;-75
2021/04/18 04:15:50;;;;;;;11.03;3.60;;;22.60;94.30;;;;;;5051867;28;20620;-74
2021/04/18 04:18:17;;;;;;;9.23;3.30;;;22.10;95.40;;;;;;5047567;28;20184;-74
2021/04/18 04:20:45;;;;;;;5.23;2.90;;;22.50;95.10;;;;;;5053549;28;20674;-71
2021/04/18 04:23:12;;;;;;;7.87;2.80;;;23.60;94.50;;;;;;5053707;28;20207;-77
2021/04/18 04:25:39;;;;;;;8.50;2.43;;;23.90;93.50;;;;;;5053657;28;20192;-74
2021/04/18 04:28:07;;;;;;;11.13;3.03;;;23.90;93.10;;;;;;5053607;28;20537;-76
2021/04/18 04:30:35;;;;;;;11.20;3.43;;;24.30;93.00;;;;;;5052948;28;20585;-73
2021/04/18 04:33:03;;;;;;;7.57;3.37;;;25.30;92.10;;;;;;5053514;28;20267;-73
2021/04/18 04:35:30;;;;;;;5.77;2.93;;;25.80;91.10;;;;;;5053493;28;20215;-72
2021/04/18 04:37:58;;;;;;;8.73;2.70;;;26.00;90.00;;;;;;5052985;28;20539;-73
2021/04/18 04:40:28;;;;;;;5.33;2.30;;;26.50;89.00;;;;;;5053119;28;20164;-75
2021/04/18 04:42:55;;;;;;;10.23;2.93;;;27.10;87.60;;;;;;5053350;28;20176;-72
2021/04/18 04:45:23;;;;;;;10.70;2.60;;;26.60;87.70;;;;;;5051877;28;20645;-74
2021/04/18 04:47:50;;;;;;;6.70;2.70;;;26.50;87.70;;;;;;5053052;28;20626;-74
2021/04/18 04:50:20;;;;;;;7.40;2.47;;;25.60;88.40;;;;;;5050106;28;20184;-73
2021/04/18 04:52:48;;;;;;;9.50;2.50;;;25.40;90.00;;;;;;5050883;28;20678;-73
2021/04/18 04:55:16;;;;;;;6.00;2.50;;;25.90;89.60;;;;;;5051434;28;20215;-76
2021/04/18 04:57:44;;;;;;;8.53;2.60;;;26.80;87.50;;;;;;5052976;28;20279;-80
2021/04/18 05:00:12;;;;;;;6.23;2.03;;;26.50;87.20;;;;;;5052853;28;20558;-73
2021/04/18 05:02:39;;;;;;;7.60;2.30;;;27.10;86.30;;;;;;5052938;28;20191;-75
2021/04/18 05:05:07;;;;;;;10.33;2.87;;;27.10;86.80;;;;;;5050889;28;20295;-73
2021/04/18 05:07:34;;;;;;;6.67;2.80;;;27.40;85.20;;;;;;5054983;28;20180;-74
2021/04/18 05:10:02;;;;;;;8.67;3.00;;;27.50;84.20;;;;;;5052745;28;20538;-74
2021/04/18 05:12:29;;;;;;;6.63;2.50;;;27.30;84.70;;;;;;5052369;28;20396;-77
2021/04/18 05:14:56;;;;;;;4.90;2.43;;;27.10;85.40;;;;;;5051299;28;20708;-76
2021/04/18 05:17:24;;;;;;;4.70;2.23;;;26.90;86.30;;;;;;5051169;28;20210;-76
2021/04/18 05:19:51;;;;;;;5.97;2.53;;;27.10;85.60;;;;;;5052000;28;20258;-74
2021/04/18 05:22:18;;;;;;;7.00;2.83;;;26.30;86.70;;;;;;5049982;28;20207;-76
2021/04/18 05:24:46;;;;;;;10.30;2.93;;;25.20;88.70;;;;;;5051644;28;20516;-75
2021/04/18 05:27:13;;;;;;;6.30;2.57;;;24.30;90.40;;;;;;5052455;28;20661;-76
2021/04/18 05:29:41;;;;;;;10.20;3.17;;;23.50;91.80;;;;;;5051852;28;20234;-76
2021/04/18 05:32:08;;;;;;;7.07;2.90;;;23.10;92.50;;;;;;5049895;28;20650;-74
2021/04/18 05:34:36;;;;;;;6.80;3.17;;;22.80;92.90;;;;;;5051209;28;20192;-72
2021/04/18 05:37:04;;;;;;;9.23;2.73;;;22.30;93.60;;;;;;5051681;28;20227;-75
2021/04/18 05:39:32;;;;;;;7.67;3.40;;;22.00;94.30;;;;;;5051595;28;20180;-73
2021/04/18 05:41:59;;;;;;;7.67;3.00;;;22.50;94.30;;;;;;5052718;28;20180;-72
2021/04/18 05:44:27;;;;;;;8.40;3.00;;;23.40;93.20;;;;;;5051174;28;20712;-75
2021/04/18 05:46:54;;;;;;;6.57;2.57;;;24.20;92.20;;;;;;5048173;28;20179;-71
2021/04/18 05:49:21;;;;;;;4.17;2.20;;;24.30;91.50;;;;;;5044611;28;20192;-73
2021/04/18 05:51:48;;;;;;;6.77;2.50;;;24.00;91.70;;;;;;5051822;28;20180;-72
2021/04/18 05:54:16;;;;;;;8.33;3.27;;;24.00;91.90;;;;;;5053005;28;20180;-70
2021/04/18 05:56:43;;;;;;;6.67;2.93;;;24.20;91.80;;;;;;5051866;28;20215;-71
2021/04/18 05:59:10;;;;;;;7.83;2.40;;;24.40;91.30;;;;;;5054237;28;20184;-73
2021/04/18 06:01:39;;;;;;;8.63;2.60;;;24.00;91.50;;;;;;5051688;28;20176;-74
2021/04/18 06:04:09;;;;;;;6.83;2.60;;;24.50;91.30;;;;;;5051819;28;20241;-70
2021/04/18 06:06:37;;;;;;;6.67;2.40;;;24.10;91.50;;;;;;5056893;28;20730;-68
2021/04/18 06:09:04;;;;;;;5.57;2.20;;;24.20;91.90;;;;;;5056045;28;20641;-69
2021/04/18 06:11:32;;;;;;;6.63;2.00;;;24.10;91.50;;;;;;5050871;28;20262;-70
2021/04/18 06:13:59;;;;;;;7.40;2.33;;;24.20;91.60;;;;;;5053092;28;20176;-70
2021/04/18 06:16:26;;;;;;;5.37;2.07;;;23.90;91.60;;;;;;5053233;28;20208;-72
2021/04/18 06:18:54;;;;;;;5.50;2.10;;;23.60;91.90;;;;;;5050984;28;20238;-69
2021/04/18 06:21:21;;;;;;;4.67;2.30;;;23.80;91.70;;;;;;5053051;28;20187;-71
2021/04/18 06:23:48;;;;;;;9.90;3.13;;;23.60;91.80;;;;;;5054548;28;20245;-71
2021/04/18 06:26:16;;;;;;;6.10;2.27;;;24.00;91.90;;;;;;5052514;28;20172;-70
2021/04/18 06:28:43;;;;;;;6.43;2.37;;;24.10;91.30;;;;;;5052237;28;20198;-72
2021/04/18 06:31:11;;;;;;;8.47;2.53;;;23.70;91.50;;;;;;5053980;28;20235;-75
2021/04/18 06:33:39;;;;;;;7.67;2.10;;;23.70;91.90;;;;;;5053107;28;20188;-72
2021/04/18 06:36:07;;;;;;;8.03;2.83;;;23.80;91.50;;;;;;5054714;28;20207;-72
2021/04/18 06:38:34;;;;;;;9.80;4.33;;;23.50;91.90;;;;;;5054238;28;20281;-71
2021/04/18 06:41:02;;;;;;;7.70;4.83;;;23.30;92.00;;;;;;5053702;28;20542;-70
2021/04/18 06:43:29;;;;;;;7.10;4.00;;;22.70;92.50;;;;;;5047991;28;20180;-70
2021/04/18 06:45:57;;;;;;;7.47;3.30;;;22.00;93.50;;;;;;5053859;28;20674;-70
2021/04/18 06:48:24;;;;;;;6.43;2.50;;;21.50;94.50;;;;;;5052200;28;20180;-72
2021/04/18 06:50:56;;;;;;;10.30;5.97;;;21.30;94.80;;;;;;5053623;28;20184;-70
2021/04/18 06:53:23;;;;;;;7.83;2.43;;;21.10;95.40;;;;;;5053349;28;20589;-70
2021/04/18 06:55:51;;;;;;;4.87;2.20;;;21.00;95.40;;;;;;5044281;28;20565;-74
2021/04/18 06:58:18;;;;;;;4.17;2.00;;;20.90;95.70;;;;;;5066493;28;20597;-72
2021/04/18 07:00:46;;;;;;;8.27;2.53;;;20.70;96.00;;;;;;5060048;28;20210;-73
2021/04/18 07:03:21;;;;;;;5.30;1.93;;;20.40;96.40;;;;;;5049451;28;20192;-71
2021/04/18 07:05:50;;;;;;;7.87;1.93;;;20.20;97.20;;;;;;5075049;28;20265;-70
2021/04/18 07:08:30;;;;;;;6.67;2.33;;;20.10;97.90;;;;;;5058311;28;20283;-71
2021/04/18 07:11:17;;;;;;;9.93;2.80;;;20.00;98.70;;;;;;5061101;28;20187;-72
2021/04/18 07:13:46;;;;;;;5.23;2.17;;;20.00;98.90;;;;;;5061093;28;20263;-71
2021/04/18 07:16:32;;;;;;;8.50;2.30;;;19.80;99.50;;;;;;5057940;28;20689;-72
2021/04/18 07:18:59;;;;;;;7.40;2.70;;;19.70;99.80;;;;;;5056899;28;20230;-73
2021/04/18 07:21:49;;;;;;;6.37;2.33;;;19.60;99.90;;;;;;5057948;28;20176;-70
2021/04/18 07:24:18;;;;;;;10.27;2.57;;;19.50;99.90;;;;;;5041837;28;20261;-70
2021/04/18 07:27:01;;;;;;;8.47;2.60;;;19.50;99.90;;;;;;5054126;28;20200;-74
2021/04/18 07:29:30;;;;;;;10.23;3.00;;;19.40;99.90;;;;;;5053552;28;20546;-70
2021/04/18 07:31:59;;;;;;;5.63;2.47;;;19.30;99.90;;;;;;5040145;28;20180;-70
2021/04/18 07:34:39;;;;;;;9.00;2.17;;;19.20;99.90;;;;;;5053340;28;20237;-70
2021/04/18 07:37:28;;;;;;;7.50;2.67;;;19.20;99.90;;;;;;5056312;28;20207;-70
2021/04/18 07:39:58;;;;;;;11.40;2.33;;;19.10;99.90;;;;;;5041402;28;20212;-72
2021/04/18 07:42:33;;;;;;;9.90;2.63;;;19.10;99.90;;;;;;5039888;28;20215;-69
2021/04/18 07:45:03;;;;;;;7.63;2.70;;;19.00;99.90;;;;;;5053229;28;20182;-69
2021/04/18 07:47:33;;;;;;;7.50;2.67;;;18.90;99.90;;;;;;5049321;28;20183;-71
2021/04/18 07:50:02;;;;;;;4.80;2.30;;;18.90;99.90;;;;;;5053245;28;20184;-69
2021/04/18 07:52:30;;;;;;;10.43;2.70;;;18.90;99.90;;;;;;5053587;28;20184;-73
2021/04/18 07:55:00;;;;;;;7.63;2.87;;;18.90;99.90;;;;;;5053214;28;20530;-70
2021/04/18 07:57:27;;;;;;;5.60;2.40;;;18.80;99.90;;;;;;5054752;28;20195;-73
2021/04/18 07:59:55;;;;;;;7.10;2.57;;;18.80;99.90;;;;;;5049854;28;20571;-73
2021/04/18 08:02:24;;;;;;;6.33;2.53;;;18.90;99.90;;;;;;5053289;28;20661;-73
2021/04/18 08:04:54;;;;;;;10.43;3.03;;;18.80;99.90;;;;;;5052723;28;20195;-69
2021/04/18 08:07:25;;;;;;;8.17;2.73;;;18.80;99.90;;;;;;5052560;28;20183;-69
2021/04/18 08:10:24;;;;;;;7.80;2.77;;;18.70;99.90;;;;;;5052229;28;20646;-68
2021/04/18 08:13:01;;;;;;;7.83;2.60;;;18.60;99.90;;;;;;5049478;28;20203;-68
2021/04/18 08:15:29;;;;;;;7.30;2.67;;;18.60;99.90;;;;;;5051257;28;20603;-70
2021/04/18 08:18:08;;;;;;;7.80;2.97;;;18.60;99.90;;;;;;5050945;28;20225;-70
2021/04/18 08:20:42;;;;;;;10.50;3.37;;;18.50;99.90;;;;;;5051630;28;20186;-69
2021/04/18 08:23:16;;;;;;;6.00;2.77;;;18.40;99.90;;;;;;5049169;28;20180;-73
2021/04/18 08:26:08;;;;;;;11.83;3.67;;;18.40;99.90;;;;;;5049922;28;20183;-71
2021/04/18 08:28:58;;;;;;;8.37;2.90;;;18.30;99.90;;;;;;5039922;28;20246;-70
2021/04/18 08:31:28;;;;;;;9.70;3.33;;;18.30;99.90;;;;;;5051786;28;20240;-71
2021/04/18 08:34:01;;;;;;;9.30;3.23;;;18.30;99.90;;;;;;5043707;28;20184;-71
2021/04/18 08:36:46;;;;;;;9.43;3.23;;;18.30;99.90;;;;;;5052721;28;20227;-70
2021/04/18 08:39:16;;;;;;;8.70;3.00;;;18.20;99.90;;;;;;5053018;28;20176;-72
2021/04/18 08:41:49;;;;;;;7.50;2.77;;;18.20;99.90;;;;;;5051991;28;20184;-70
2021/04/18 08:44:42;;;;;;;5.00;3.10;;;18.10;99.90;;;;;;5052259;28;20183;-70
2021/04/18 08:47:15;;;;;;;7.23;2.80;;;18.00;99.90;;;;;;5050742;28;20184;-69
2021/04/18 08:49:57;;;;;;;9.77;3.10;;;18.00;99.90;;;;;;5044285;28;20661;-71
2021/04/18 08:52:31;;;;;;;9.60;3.77;;;17.90;99.90;;;;;;5050344;28;20175;-70
2021/04/18 08:55:10;;;;;;;11.83;4.20;;;17.90;99.90;;;;;;5052511;28;20176;-74
2021/04/18 08:57:38;;;;;;;10.53;3.43;;;17.80;99.90;;;;;;5052769;28;20171;-73
2021/04/18 09:00:29;;;;;;;9.43;3.73;;;17.70;99.90;;;;;;5046751;28;20176;-71
2021/04/18 09:02:57;;;;;;;9.03;3.67;;;17.70;99.90;;;;;;5050986;28;20180;-72
2021/04/18 09:05:25;;;;;;;11.47;4.40;;;17.70;99.90;;;;;;5052633;28;20184;-71
2021/04/18 09:07:53;;;;;;;10.63;4.13;;;17.70;99.90;;;;;;5052896;28;20175;-71
2021/04/18 09:10:21;;;;;;;12.60;4.80;;;17.70;99.90;;;;;;5052274;28;20214;-69
2021/04/18 09:12:49;;;;;;;12.53;4.23;;;17.60;99.90;;;;;;5051761;28;20172;-73
2021/04/18 09:15:17;;;;;;;8.83;4.53;;;17.60;99.90;;;;;;5051171;28;20669;-71
2021/04/18 09:17:44;;;;;;;10.37;4.70;;;17.60;99.90;;;;;;5052230;28;20179;-70
2021/04/18 09:20:16;;;;;;;8.37;3.70;;;17.60;99.90;;;;;;5051052;28;20546;-73
2021/04/18 09:22:44;;;;;;;13.83;4.80;;;17.60;99.90;;;;;;5042353;28;20189;-72
2021/04/18 09:25:14;;;;;;;17.43;5.20;;;17.50;99.90;;;;;;5039966;28;20638;-69
2021/04/18 09:27:50;;;;;;;12.60;4.43;;;17.40;99.90;;;;;;5046639;28;20196;-71
2021/04/18 09:30:22;;;;;;;12.90;5.60;;;17.40;99.90;;;;;;5051549;28;20227;-74
2021/04/18 09:32:52;;;;;;;18.70;8.00;;;17.40;99.90;;;;;;5046279;28;20539;-72
2021/04/18 09:35:21;;;;;;;16.13;8.57;;;17.30;99.90;;;;;;5049805;28;20202;-70
2021/04/18 09:37:56;;;;;;;16.17;9.30;;;17.30;99.90;;;;;;5050418;28;20191;-71
2021/04/18 09:40:26;;;;;;;16.70;8.40;;;17.30;99.90;;;;;;5042624;28;20240;-69
2021/04/18 09:42:54;;;;;;;12.93;8.10;;;17.20;99.90;;;;;;5052162;28;20175;-69
2021/04/18 09:45:33;;;;;;;15.90;6.87;;;17.20;99.90;;;;;;5051461;28;20183;-69
2021/04/18 09:48:13;;;;;;;13.90;6.60;;;17.20;99.90;;;;;;5051767;28;20191;-69
2021/04/18 09:50:41;;;;;;;13.70;6.37;;;17.10;99.90;;;;;;5051407;28;20274;-70
2021/04/18 09:53:24;;;;;;;15.90;6.50;;;17.10;99.90;;;;;;5051255;28;20175;-70
2021/04/18 09:55:58;;;;;;;19.37;7.77;;;17.10;99.90;;;;;;5055398;28;20613;-70
2021/04/18 09:58:32;;;;;;;15.00;6.80;;;17.00;99.90;;;;;;5056073;28;20634;-69
2021/04/18 10:01:00;;;;;;;12.43;6.23;;;17.00;99.90;;;;;;5056197;28;20524;-69
2021/04/18 10:03:43;;;;;;;12.37;5.80;;;17.00;99.90;;;;;;5053720;28;20179;-71
2021/04/18 10:06:10;;;;;;;12.77;6.43;;;16.90;99.90;;;;;;5053724;28;20539;-70
2021/04/18 10:08:40;;;;;;;12.57;5.17;;;16.90;99.90;;;;;;5055598;28;20237;-70
2021/04/18 10:11:07;;;;;;;10.60;5.93;;;16.90;99.90;;;;;;5056127;28;20187;-70
2021/04/18 10:13:54;;;;;;;8.67;5.87;;;16.90;99.90;;;;;;5055502;28;20168;-72
2021/04/18 10:16:24;;;;;;;12.57;5.47;;;16.80;99.90;;;;;;5053328;28;20232;-69
2021/04/18 10:19:17;;;;;;;10.93;6.20;;;16.80;99.90;;;;;;5055683;28;20182;-70
2021/04/18 10:22:08;;;;;;;10.23;6.40;;;16.70;99.90;;;;;;5055892;28;20185;-70
2021/04/18 10:24:41;;;;;;;16.23;7.17;;;16.70;99.90;;;;;;5042120;28;20179;-69
2021/04/18 10:27:10;;;;;;;14.37;8.03;;;16.70;99.90;;;;;;5052483;28;20182;-70
2021/04/18 10:29:39;;;;;;;16.80;7.17;;;16.60;99.90;;;;;;5053245;28;20661;-69
2021/04/18 10:32:08;;;;;;;14.07;6.93;;;16.60;99.90;;;;;;5055396;28;20203;-70
2021/04/18 10:34:36;;;;;;;13.37;7.70;;;16.60;99.90;;;;;;5054376;28;20190;-71
2021/04/18 10:37:04;;;;;;;18.57;7.90;;;16.60;99.90;;;;;;5055662;28;20221;-70
2021/04/18 10:39:33;;;;;;;19.30;7.30;;;16.50;99.90;;;;;;5054985;28;20182;-68
2021/04/18 10:42:01;;;;;;;15.30;8.50;;;16.50;99.90;;;;;;5055059;28;20191;-70
2021/04/18 10:44:29;;;;;;;12.50;7.37;;;16.50;99.90;;;;;;5053084;28;20180;-70
2021/04/18 10:47:05;;;;;;;14.93;7.53;;;16.40;99.90;;;;;;5054766;28;20192;-71
2021/04/18 10:49:32;;;;;;;15.63;7.43;;;16.40;99.90;;;;;;5053943;28;20183;-72
2021/04/18 10:52:00;;;;;;;14.27;7.93;;;16.40;99.90;;;;;;5055369;28;20553;-71
2021/04/18 10:54:28;;;;;;;15.37;8.17;;;16.40;99.90;;;;;;5054839;28;20173;-71
2021/04/18 10:56:56;;;;;;;15.03;7.83;;;16.30;99.90;;;;;;5055288;28;20225;-70
2021/04/18 10:59:24;;;;;;;18.33;8.83;;;16.30;99.90;;;;;;5055510;28;20201;-71
2021/04/18 11:01:55;;;;;;;22.50;7.70;;;16.30;99.90;;;;;;5055776;28;20259;-70
2021/04/18 11:04:25;;;;;;;17.53;8.40;;;16.30;99.90;;;;;;5055570;28;20183;-69
2021/04/18 11:06:53;;;;;;;13.87;7.27;;;16.30;99.90;;;;;;5054751;28;20186;-69
2021/04/18 11:09:22;;;;;;;13.83;7.53;;;16.20;99.90;;;;;;5055390;28;20638;-70
2021/04/18 11:11:49;;;;;;;15.43;7.33;;;16.30;99.90;;;;;;5055300;28;20187;-71
2021/04/18 11:14:18;;;;;;;16.30;7.20;;;16.30;99.90;;;;;;5055054;28;20238;-70
2021/04/18 11:16:46;;;;;;;18.10;7.40;;;16.20;99.90;;;;;;5055623;28;20629;-71
2021/04/18 11:19:13;;;;;;;14.50;7.17;;;16.20;99.90;;;;;;5054463;28;20226;-70
2021/04/18 11:21:41;;;;;;;15.00;7.37;;;16.20;99.90;;;;;;5055456;28;20458;-71
2021/04/18 11:24:08;;;;;;;13.40;7.20;;;16.20;99.90;;;;;;5055224;28;20174;-70
2021/04/18 11:26:36;;;;;;;13.90;7.47;;;16.10;99.90;;;;;;5055270;28;20985;-72
2021/04/18 11:29:05;;;;;;;16.20;7.10;;;16.10;99.90;;;;;;5050956;28;20179;-72
2021/04/18 11:31:32;;;;;;;13.67;7.90;;;16.10;99.90;;;;;;5052665;28;20216;-70
2021/04/18 11:34:00;;;;;;;14.60;6.93;;;16.00;99.90;;;;;;5054547;28;20550;-70
2021/04/18 11:36:27;;;;;;;15.87;8.10;;;16.00;99.90;;;;;;5054880;28;20216;-70
2021/04/18 11:38:55;;;;;;;16.33;9.03;;;16.00;99.90;;;;;;5054095;28;20179;-69
2021/04/18 11:41:22;;;;;;;17.03;8.77;;;16.00;99.90;;;;;;5054299;28;20605;-70
2021/04/18 11:43:49;;;;;;;21.27;9.07;;;16.00;99.90;;;;;;5048179;28;20333;-70
2021/04/18 11:46:17;;;;;;;14.47;8.43;;;16.00;99.90;;;;;;5047578;28;20218;-71
2021/04/18 11:48:44;;;;;;;14.33;8.03;;;15.90;99.90;;;;;;5053439;28;20176;-70
2021/04/18 11:51:12;;;;;;;16.47;9.10;;;15.90;99.90;;;;;;5052662;28;20186;-70
2021/04/18 11:53:39;;;;;;;16.13;8.00;;;15.80;99.90;;;;;;5054279;28;20187;-73
2021/04/18 11:56:06;;;;;;;14.33;7.80;;;15.80;99.90;;;;;;5053926;28;20711;-73
2021/04/18 11:58:34;;;;;;;10.60;6.53;;;15.80;99.90;;;;;;5052520;28;20179;-71
2021/04/18 12:01:01;;;;;;;13.03;7.63;;;15.70;99.90;;;;;;5053383;28;20598;-72
2021/04/18 12:03:28;;;;;;;14.47;8.33;;;15.70;99.90;;;;;;5052388;28;20175;-70
2021/04/18 12:05:57;;;;;;;16.53;8.13;;;15.70;99.90;;;;;;5053491;28;20704;-71
2021/04/18 12:08:24;;;;;;;19.10;8.60;;;15.60;99.90;;;;;;5052983;28;20595;-70
2021/04/18 12:10:52;;;;;;;14.37;7.27;;;15.70;99.90;;;;;;5042381;28;20242;-70
2021/04/18 12:13:20;;;;;;;13.07;7.17;;;15.70;99.90;;;;;;5053406;28;20265;-70
2021/04/18 12:15:47;;;;;;;12.10;6.70;;;15.70;99.90;;;;;;5052104;28;20288;-69
2021/04/18 12:18:15;;;;;;;16.97;8.07;;;15.70;99.90;;;;;;5053255;28;20203;-70
2021/04/18 12:20:43;;;;;;;19.33;7.67;;;15.60;99.90;;;;;;5053323;28;20181;-72
2021/04/18 12:23:10;;;;;;;16.57;8.40;;;15.60;99.90;;;;;;5052890;28;20184;-71
2021/04/18 12:25:37;;;;;;;16.33;8.33;;;15.60;99.90;;;;;;5050955;28;20649;-71
2021/04/18 12:28:05;;;;;;;15.63;7.93;;;15.60;99.90;;;;;;5052839;28;20178;-70
2021/04/18 12:30:32;;;;;;;18.10;8.50;;;15.60;99.90;;;;;;5047559;28;20258;-74
2021/04/18 12:33:00;;;;;;;16.93;7.83;;;15.50;99.90;;;;;;5048303;28;20229;-70
2021/04/18 12:35:27;;;;;;;21.10;7.47;;;15.50;99.90;;;;;;5050905;28;20565;-72
2021/04/18 12:37:55;;;;;;;14.20;6.80;;;15.50;99.90;;;;;;5052898;28;20585;-70
2021/04/18 12:40:22;;;;;;;14.63;7.67;;;15.50;99.90;;;;;;5052643;28;20173;-71
2021/04/18 12:42:50;;;;;;;14.47;7.50;;;15.50;99.90;;;;;;5042731;28;20265;-70
2021/04/18 12:45:17;;;;;;;14.93;7.00;;;15.50;99.90;;;;;;5041424;28;20180;-72
2021/04/18 12:47:46;;;;;;;15.00;7.10;;;15.40;99.90;;;;;;5052025;28;20698;-71
2021/04/18 12:50:14;;;;;;;14.23;6.40;;;15.50;99.90;;;;;;5051331;28;20177;-71
2021/04/18 12:52:41;;;;;;;17.70;7.10;;;15.50;99.90;;;;;;5052739;28;20191;-72